createdAt,value
2022-10-15T00:02:10.315Z,12.80
2022-10-15T00:04:38.175Z,12.80
2022-10-15T00:07:05.966Z,12.80
2022-10-15T00:09:33.724Z,12.80
2022-10-15T00:12:01.452Z,12.70
2022-10-15T00:14:32.730Z,12.70
2022-10-15T00:17:00.475Z,12.70
2022-10-15T00:19:28.246Z,12.60
2022-10-15T00:21:56.115Z,12.70
2022-10-15T00:24:23.943Z,12.60
2022-10-15T00:26:51.738Z,12.60
2022-10-15T00:29:19.598Z,12.60
2022-10-15T00:31:48.709Z,12.60
2022-10-15T00:34:18.830Z,12.60
2022-10-15T00:36:50.925Z,12.60
2022-10-15T00:39:18.824Z,12.60
2022-10-15T00:41:46.797Z,12.60
2022-10-15T00:44:33.566Z,12.60
2022-10-15T00:47:04.734Z,12.60
2022-10-15T00:49:34.569Z,12.50
2022-10-15T00:52:03.954Z,12.50
2022-10-15T00:54:33.500Z,12.50
2022-10-15T00:57:01.687Z,12.60
2022-10-15T00:59:31.242Z,12.60
2022-10-15T01:01:59.649Z,12.60
2022-10-15T01:04:29.105Z,12.60
2022-10-15T01:06:56.949Z,12.60
2022-10-15T01:09:24.836Z,12.60
2022-10-15T01:11:54.434Z,12.60
2022-10-15T01:14:28.430Z,12.60
2022-10-15T01:17:00.653Z,12.60
2022-10-15T01:19:34.903Z,12.60
2022-10-15T01:22:06.716Z,12.60
2022-10-15T01:24:43.912Z,12.60
2022-10-15T01:27:32.081Z,12.60
2022-10-15T01:30:20.858Z,12.60
2022-10-15T01:33:01.764Z,12.60
2022-10-15T01:35:33.057Z,12.70
2022-10-15T01:38:03.693Z,12.70
2022-10-15T01:40:35.291Z,12.70
2022-10-15T01:43:04.832Z,12.70
2022-10-15T01:45:54.761Z,12.70
2022-10-15T01:48:44.139Z,12.70
2022-10-15T01:51:14.043Z,12.70
2022-10-15T01:53:42.204Z,12.70
2022-10-15T01:56:12.256Z,12.70
2022-10-15T01:58:41.759Z,12.70
2022-10-15T02:01:09.801Z,12.70
2022-10-15T02:03:46.583Z,12.70
2022-10-15T02:06:17.229Z,12.80
2022-10-15T02:08:46.718Z,12.70
2022-10-15T02:11:15.664Z,12.70
2022-10-15T02:13:48.733Z,12.70
2022-10-15T02:16:22.529Z,12.80
2022-10-15T02:18:57.678Z,12.80
2022-10-15T02:21:29.640Z,12.80
2022-10-15T02:23:58.556Z,12.80
2022-10-15T02:26:28.714Z,12.80
2022-10-15T02:28:58.585Z,12.80
2022-10-15T02:31:31.403Z,12.80
2022-10-15T02:34:04.275Z,12.80
2022-10-15T02:36:32.193Z,12.80
2022-10-15T02:39:06.053Z,12.80
2022-10-15T02:41:34.896Z,12.80
2022-10-15T02:44:02.874Z,12.70
2022-10-15T02:46:31.049Z,12.80
2022-10-15T02:48:59.028Z,12.70
2022-10-15T02:51:28.188Z,12.70
2022-10-15T02:53:55.924Z,12.80
2022-10-15T02:56:23.804Z,12.80
2022-10-15T02:58:51.579Z,12.80
2022-10-15T03:01:21.997Z,12.80
2022-10-15T03:03:49.824Z,12.80
2022-10-15T03:06:17.906Z,12.80
2022-10-15T03:08:49.370Z,12.80
2022-10-15T03:11:19.576Z,12.80
2022-10-15T03:13:47.404Z,12.80
2022-10-15T03:16:15.206Z,12.80
2022-10-15T03:18:45.455Z,12.80
2022-10-15T03:21:13.312Z,12.80
2022-10-15T03:23:44.262Z,12.80
2022-10-15T03:26:23.019Z,12.80
2022-10-15T03:28:51.398Z,12.80
2022-10-15T03:31:32.604Z,12.80
2022-10-15T03:34:03.268Z,12.70
2022-10-15T03:36:32.099Z,12.70
2022-10-15T03:39:01.300Z,12.70
2022-10-15T03:41:30.525Z,12.60
2022-10-15T03:44:01.568Z,12.60
2022-10-15T03:46:30.250Z,12.60
2022-10-15T03:49:00.268Z,12.60
2022-10-15T03:51:31.447Z,12.60
2022-10-15T03:54:05.562Z,12.60
2022-10-15T03:56:41.555Z,12.60
2022-10-15T03:59:23.308Z,12.60
2022-10-15T04:01:58.266Z,12.60
2022-10-15T04:04:26.384Z,12.70
2022-10-15T04:06:56.617Z,12.70
2022-10-15T04:09:25.299Z,12.70
2022-10-15T04:11:54.445Z,12.70
2022-10-15T04:14:22.333Z,12.70
2022-10-15T04:16:52.482Z,12.70
2022-10-15T04:19:24.095Z,12.70
2022-10-15T04:22:02.034Z,12.70
2022-10-15T04:24:43.069Z,12.70
2022-10-15T04:29:41.075Z,12.70
2022-10-15T04:32:16.122Z,12.60
2022-10-15T04:34:46.389Z,12.60
2022-10-15T04:37:15.385Z,12.60
2022-10-15T04:39:43.191Z,12.60
2022-10-15T04:42:15.362Z,12.60
2022-10-15T04:44:43.114Z,12.70
2022-10-15T04:47:10.908Z,12.60
2022-10-15T04:50:05.423Z,12.70
2022-10-15T04:52:55.889Z,12.60
2022-10-15T04:55:25.367Z,12.70
2022-10-15T04:57:59.733Z,12.70
2022-10-15T05:00:30.979Z,12.70
2022-10-15T05:03:22.052Z,12.70
2022-10-15T05:06:01.558Z,12.70
2022-10-15T05:08:29.688Z,12.70
2022-10-15T05:11:11.200Z,12.80
2022-10-15T05:13:40.833Z,12.80
2022-10-15T05:16:10.608Z,12.80
2022-10-15T05:18:38.940Z,12.80
2022-10-15T05:21:07.173Z,12.80
2022-10-15T05:23:36.764Z,12.80
2022-10-15T05:26:25.859Z,12.80
2022-10-15T05:28:56.285Z,12.80
2022-10-15T05:31:28.293Z,12.80
2022-10-15T05:34:07.526Z,12.80
2022-10-15T05:36:40.250Z,12.90
2022-10-15T05:39:10.436Z,12.90
2022-10-15T05:41:42.851Z,12.90
2022-10-15T05:44:11.977Z,12.90
2022-10-15T05:46:39.854Z,12.90
2022-10-15T05:49:07.659Z,13.00
2022-10-15T05:51:48.701Z,13.00
2022-10-15T05:54:26.724Z,13.00
2022-10-15T05:56:54.494Z,13.00
2022-10-15T05:59:23.597Z,13.00
2022-10-15T06:01:53.765Z,13.00
2022-10-15T06:04:21.595Z,13.10
2022-10-15T06:06:49.364Z,13.10
2022-10-15T06:09:17.102Z,13.10
2022-10-15T06:11:44.874Z,13.10
2022-10-15T06:14:15.768Z,13.10
2022-10-15T06:16:44.892Z,13.20
2022-10-15T06:19:15.205Z,13.20
2022-10-15T06:21:45.051Z,13.20
2022-10-15T06:24:12.802Z,13.20
2022-10-15T06:26:40.620Z,13.20
2022-10-15T06:29:08.362Z,13.30
2022-10-15T06:31:36.082Z,13.30
2022-10-15T06:34:05.208Z,13.40
2022-10-15T06:36:32.977Z,13.40
2022-10-15T06:39:00.728Z,13.50
2022-10-15T06:41:28.469Z,13.50
2022-10-15T06:43:56.352Z,13.70
2022-10-15T06:46:24.369Z,14.00
2022-10-15T06:48:52.587Z,14.40
2022-10-15T06:51:21.753Z,14.60
2022-10-15T06:53:51.269Z,14.70
2022-10-15T06:56:19.025Z,14.60
2022-10-15T06:58:46.922Z,14.60
2022-10-15T07:01:14.704Z,15.10
2022-10-15T07:03:42.434Z,15.40
2022-10-15T07:06:10.463Z,15.20
2022-10-15T07:08:39.754Z,14.90
2022-10-15T07:11:09.053Z,14.50
2022-10-15T07:13:36.866Z,14.40
2022-10-15T07:16:05.774Z,14.30
2022-10-15T07:18:34.531Z,14.50
2022-10-15T07:21:02.612Z,14.60
2022-10-15T07:23:30.429Z,14.50
2022-10-15T07:25:59.601Z,14.50
2022-10-15T07:28:27.437Z,14.40
2022-10-15T07:30:55.245Z,14.40
2022-10-15T07:33:23.008Z,14.40
2022-10-15T07:36:02.522Z,14.60
2022-10-15T07:38:30.381Z,14.80
2022-10-15T07:41:00.419Z,15.00
2022-10-15T07:43:28.436Z,15.10
2022-10-15T07:45:56.480Z,15.10
2022-10-15T07:48:25.045Z,15.20
2022-10-15T07:50:55.246Z,15.30
2022-10-15T07:53:23.128Z,15.30
2022-10-15T07:55:55.289Z,15.30
2022-10-15T07:58:24.401Z,15.30
2022-10-15T08:00:52.212Z,15.40
2022-10-15T08:03:19.948Z,15.40
2022-10-15T08:05:53.121Z,15.50
2022-10-15T08:08:22.282Z,15.60
2022-10-15T08:10:50.093Z,15.50
2022-10-15T08:13:17.974Z,15.40
2022-10-15T08:15:55.020Z,15.40
2022-10-15T08:18:27.911Z,15.50
2022-10-15T08:20:59.849Z,15.60
2022-10-15T08:23:27.662Z,15.70
2022-10-15T08:25:55.517Z,15.70
2022-10-15T08:28:23.318Z,15.70
2022-10-15T08:30:52.463Z,15.80
2022-10-15T08:33:20.382Z,15.90
2022-10-15T08:35:48.110Z,16.10
2022-10-15T08:38:19.017Z,16.20
2022-10-15T08:40:50.547Z,16.30
2022-10-15T08:43:20.920Z,16.40
2022-10-15T08:45:49.726Z,16.40
2022-10-15T08:48:21.388Z,16.70
2022-10-15T08:50:53.291Z,16.90
2022-10-15T08:53:23.181Z,17.00
2022-10-15T08:55:52.186Z,17.10
2022-10-15T08:58:21.950Z,17.20
2022-10-15T09:00:51.595Z,17.20
2022-10-15T09:03:28.806Z,17.50
2022-10-15T09:06:01.543Z,17.60
2022-10-15T09:08:30.907Z,17.30
2022-10-15T09:11:00.732Z,17.00
2022-10-15T09:13:30.434Z,16.90
2022-10-15T09:16:04.862Z,16.80
2022-10-15T09:18:35.143Z,17.10
2022-10-15T09:21:03.459Z,17.30
2022-10-15T09:23:33.288Z,17.40
2022-10-15T09:26:03.405Z,17.20
2022-10-15T09:28:37.138Z,17.30
2022-10-15T09:31:06.518Z,17.30
2022-10-15T09:33:37.830Z,17.40
2022-10-15T09:36:12.832Z,17.60
2022-10-15T09:38:44.534Z,17.60
2022-10-15T09:41:18.086Z,17.80
2022-10-15T09:43:47.581Z,18.10
2022-10-15T09:46:15.427Z,18.40
2022-10-15T09:48:47.426Z,18.80
2022-10-15T09:51:19.472Z,18.70
2022-10-15T09:53:50.416Z,18.70
2022-10-15T09:56:20.489Z,19.00
2022-10-15T09:58:51.413Z,18.60
2022-10-15T10:01:21.857Z,18.30
2022-10-15T10:03:54.263Z,18.10
2022-10-15T10:06:23.503Z,18.10
2022-10-15T10:08:55.498Z,18.10
2022-10-15T10:11:24.562Z,18.00
2022-10-15T10:13:55.040Z,17.90
2022-10-15T10:16:23.505Z,17.80
2022-10-15T10:19:06.596Z,17.90
2022-10-15T10:21:35.710Z,17.70
2022-10-15T10:24:18.331Z,17.80
2022-10-15T10:26:46.541Z,17.80
2022-10-15T10:29:32.831Z,18.10
2022-10-15T10:32:10.177Z,18.30
2022-10-15T10:34:39.347Z,18.60
2022-10-15T10:37:07.794Z,18.30
2022-10-15T10:39:36.451Z,18.40
2022-10-15T10:42:05.866Z,18.40
2022-10-15T10:44:34.952Z,18.40
2022-10-15T10:47:04.583Z,18.40
2022-10-15T10:49:33.494Z,18.60
2022-10-15T10:52:02.627Z,18.60
2022-10-15T10:54:31.065Z,18.80
2022-10-15T10:57:00.023Z,18.60
2022-10-15T10:59:29.025Z,19.00
2022-10-15T11:01:57.719Z,18.80
2022-10-15T11:04:26.894Z,18.70
2022-10-15T11:06:59.495Z,18.70
2022-10-15T11:09:50.969Z,18.50
2022-10-15T11:12:31.460Z,18.60
2022-10-15T11:15:04.964Z,18.60
2022-10-15T11:17:37.153Z,18.60
2022-10-15T11:20:33.267Z,18.60
2022-10-15T11:23:07.770Z,18.50
2022-10-15T11:25:38.093Z,18.50
2022-10-15T11:28:15.160Z,18.70
2022-10-15T11:30:45.560Z,18.60
2022-10-15T11:33:27.041Z,18.50
2022-10-15T11:36:01.002Z,18.60
2022-10-15T11:38:32.157Z,18.80
2022-10-15T11:41:06.780Z,18.80
2022-10-15T11:43:43.995Z,18.90
2022-10-15T11:46:16.321Z,19.00
2022-10-15T11:48:51.693Z,18.70
2022-10-15T11:51:22.522Z,18.60
2022-10-15T11:53:57.491Z,18.80
2022-10-15T11:56:28.250Z,19.10
2022-10-15T11:59:01.443Z,19.30
2022-10-15T12:01:33.469Z,19.30
2022-10-15T12:04:09.510Z,19.20
2022-10-15T12:06:38.610Z,19.10
2022-10-15T12:09:07.694Z,18.90
2022-10-15T12:11:40.861Z,18.80
2022-10-15T12:14:16.423Z,18.90
2022-10-15T12:16:48.291Z,18.90
2022-10-15T12:19:17.975Z,19.00
2022-10-15T12:22:00.795Z,18.70
2022-10-15T12:24:48.286Z,18.60
2022-10-15T12:27:16.381Z,18.70
2022-10-15T12:29:45.874Z,18.70
2022-10-15T12:32:22.982Z,18.80
2022-10-15T12:34:55.209Z,18.70
2022-10-15T12:37:24.437Z,18.80
2022-10-15T12:39:56.210Z,18.80
2022-10-15T12:42:28.784Z,18.60
2022-10-15T12:44:58.711Z,18.60
2022-10-15T12:47:45.173Z,18.50
2022-10-15T12:50:18.610Z,18.40
2022-10-15T12:52:54.732Z,18.30
2022-10-15T12:55:24.764Z,18.30
2022-10-15T12:57:53.756Z,18.40
2022-10-15T13:00:42.357Z,18.50
2022-10-15T13:03:25.155Z,18.50
2022-10-15T13:05:55.120Z,18.50
2022-10-15T13:08:38.425Z,18.50
2022-10-15T13:11:07.260Z,18.50
2022-10-15T13:13:35.501Z,18.60
2022-10-15T13:16:09.632Z,18.50
2022-10-15T13:18:37.543Z,18.50
2022-10-15T13:21:06.771Z,18.50
2022-10-15T13:23:36.538Z,18.50
2022-10-15T13:26:29.960Z,18.50
2022-10-15T13:28:58.387Z,18.50
2022-10-15T13:31:30.815Z,18.20
2022-10-15T13:34:00.866Z,18.20
2022-10-15T13:36:30.572Z,18.10
2022-10-15T13:38:59.658Z,18.20
2022-10-15T13:41:28.786Z,18.20
2022-10-15T13:44:00.983Z,18.20
2022-10-15T13:46:31.318Z,18.20
2022-10-15T13:49:00.346Z,18.30
2022-10-15T13:51:32.684Z,18.20
2022-10-15T13:54:01.140Z,17.90
2022-10-15T13:56:30.001Z,18.00
2022-10-15T13:58:58.682Z,17.90
2022-10-15T14:01:27.587Z,17.90
2022-10-15T14:03:57.714Z,18.00
2022-10-15T14:06:26.188Z,18.00
2022-10-15T14:08:54.696Z,18.00
2022-10-15T14:11:22.532Z,18.00
2022-10-15T14:13:51.224Z,18.00
2022-10-15T14:16:21.621Z,18.20
2022-10-15T14:18:50.704Z,18.20
2022-10-15T14:21:20.848Z,18.20
2022-10-15T14:23:49.546Z,18.00
2022-10-15T14:26:24.657Z,18.00
2022-10-15T14:28:53.000Z,17.80
2022-10-15T14:31:31.120Z,17.80
2022-10-15T14:33:58.892Z,17.70
2022-10-15T14:36:31.165Z,17.70
2022-10-15T14:39:13.780Z,17.70
2022-10-15T14:41:55.477Z,17.80
2022-10-15T14:44:23.264Z,17.80
2022-10-15T14:46:52.883Z,17.90
2022-10-15T14:49:27.149Z,18.00
2022-10-15T14:51:57.801Z,18.00
2022-10-15T14:54:32.237Z,18.10
2022-10-15T14:57:00.122Z,18.00
2022-10-15T14:59:31.001Z,18.00
2022-10-15T15:02:02.840Z,17.80
2022-10-15T15:04:39.865Z,17.80
2022-10-15T15:07:13.224Z,17.70
2022-10-15T15:09:41.958Z,17.70
2022-10-15T15:12:24.083Z,17.70
2022-10-15T15:14:54.895Z,17.60
2022-10-15T15:17:23.514Z,17.60
2022-10-15T15:19:52.582Z,17.50
2022-10-15T15:22:24.955Z,17.40
2022-10-15T15:24:53.037Z,17.40
2022-10-15T15:27:25.087Z,17.40
2022-10-15T15:29:53.708Z,17.50
2022-10-15T15:32:22.113Z,17.40
2022-10-15T15:34:52.379Z,17.40
2022-10-15T15:37:21.380Z,17.40
2022-10-15T15:39:50.940Z,17.40
2022-10-15T15:42:19.700Z,17.30
2022-10-15T15:44:47.936Z,17.20
2022-10-15T15:47:18.397Z,17.10
2022-10-15T15:49:46.387Z,17.00
2022-10-15T15:52:16.910Z,16.80
2022-10-15T15:54:46.042Z,16.70
2022-10-15T15:57:15.599Z,16.70
2022-10-15T15:59:43.419Z,16.50
2022-10-15T16:02:11.454Z,16.50
2022-10-15T16:04:39.357Z,16.50
2022-10-15T16:07:09.087Z,16.40
2022-10-15T16:09:39.699Z,16.30
2022-10-15T16:12:07.539Z,16.30
2022-10-15T16:14:36.639Z,16.20
2022-10-15T16:17:04.505Z,16.10
2022-10-15T16:19:32.459Z,16.10
2022-10-15T16:22:00.271Z,16.00
2022-10-15T16:24:28.012Z,15.90
2022-10-15T16:26:55.997Z,15.90
2022-10-15T16:29:23.810Z,15.80
2022-10-15T16:31:52.920Z,15.80
2022-10-15T16:34:20.735Z,15.60
2022-10-15T16:36:48.534Z,15.60
2022-10-15T16:39:16.306Z,15.60
2022-10-15T16:41:44.153Z,15.40
2022-10-15T16:44:14.250Z,15.30
2022-10-15T16:46:42.018Z,15.20
2022-10-15T16:49:11.673Z,15.20
2022-10-15T16:51:41.420Z,15.10
2022-10-15T16:54:14.017Z,15.10
2022-10-15T16:56:41.808Z,15.00
2022-10-15T16:59:09.816Z,15.00
2022-10-15T17:01:37.718Z,14.90
2022-10-15T17:04:05.815Z,14.90
2022-10-15T17:06:35.047Z,15.00
2022-10-15T17:09:04.211Z,14.80
2022-10-15T17:11:33.085Z,14.80
2022-10-15T17:14:01.971Z,14.80
2022-10-15T17:16:30.792Z,14.80
2022-10-15T17:19:01.645Z,14.80
2022-10-15T17:21:30.165Z,14.70
2022-10-15T17:24:00.213Z,14.70
2022-10-15T17:26:29.341Z,14.70
2022-10-15T17:28:57.132Z,14.70
2022-10-15T17:31:28.916Z,14.70
2022-10-15T17:33:57.959Z,14.70
2022-10-15T17:36:26.720Z,14.60
2022-10-15T17:38:56.498Z,14.70
2022-10-15T17:41:27.881Z,14.60
2022-10-15T17:43:55.824Z,14.60
2022-10-15T17:46:25.608Z,14.70
2022-10-15T17:48:53.646Z,14.60
2022-10-15T17:51:23.244Z,14.60
2022-10-15T17:53:56.346Z,14.50
2022-10-15T17:56:25.097Z,14.50
2022-10-15T17:58:56.826Z,14.40
2022-10-15T18:01:39.512Z,14.30
2022-10-15T18:04:13.883Z,14.20
2022-10-15T18:06:44.135Z,14.20
2022-10-15T18:09:17.442Z,14.20
2022-10-15T18:11:49.035Z,14.10
2022-10-15T18:14:18.485Z,14.10
2022-10-15T18:16:46.290Z,14.10
2022-10-15T18:19:14.207Z,14.20
2022-10-15T18:21:48.553Z,14.20
2022-10-15T18:24:19.960Z,14.10
2022-10-15T18:26:48.177Z,14.20
2022-10-15T18:29:15.982Z,14.20
2022-10-15T18:31:46.803Z,14.20
2022-10-15T18:34:14.817Z,14.20
2022-10-15T18:36:43.631Z,14.20
2022-10-15T18:39:11.867Z,14.00
2022-10-15T18:41:40.272Z,14.10
2022-10-15T18:44:14.667Z,14.10
2022-10-15T18:46:43.925Z,14.20
2022-10-15T18:49:13.291Z,14.20
2022-10-15T18:51:41.116Z,14.10
2022-10-15T18:54:08.915Z,14.30
2022-10-15T18:56:36.696Z,14.30
2022-10-15T18:59:06.902Z,14.40
2022-10-15T19:01:36.055Z,14.40
2022-10-15T19:04:04.716Z,14.50
2022-10-15T19:06:35.560Z,14.50
2022-10-15T19:09:07.144Z,14.40
2022-10-15T19:11:35.662Z,14.50
2022-10-15T19:14:04.894Z,14.50
2022-10-15T19:16:33.036Z,14.50
2022-10-15T19:19:07.562Z,14.50
2022-10-15T19:21:37.559Z,14.40
2022-10-15T19:24:05.763Z,14.40
2022-10-15T19:26:33.760Z,14.30
2022-10-15T19:29:02.539Z,14.30
2022-10-15T19:31:31.454Z,14.30
2022-10-15T19:33:59.361Z,14.30
2022-10-15T19:36:30.062Z,14.40
2022-10-15T19:39:01.307Z,14.50
2022-10-15T19:41:31.238Z,14.60
2022-10-15T19:43:59.114Z,14.60
2022-10-15T19:46:29.175Z,14.70
2022-10-15T19:48:57.425Z,14.70
2022-10-15T19:51:25.853Z,14.70
2022-10-15T19:53:54.298Z,14.70
2022-10-15T19:56:23.580Z,14.80
2022-10-15T19:58:54.997Z,14.80
2022-10-15T20:01:22.908Z,14.80
2022-10-15T20:03:50.770Z,14.80
2022-10-15T20:06:19.070Z,14.80
2022-10-15T20:08:46.873Z,14.80
2022-10-15T20:11:14.900Z,14.80
2022-10-15T20:13:44.100Z,14.80
2022-10-15T20:16:14.055Z,14.80
2022-10-15T20:18:42.156Z,14.90
2022-10-15T20:21:10.529Z,14.90
2022-10-15T20:23:39.167Z,14.90
2022-10-15T20:26:07.360Z,14.90
2022-10-15T20:28:36.206Z,15.00
2022-10-15T20:31:09.133Z,14.90
2022-10-15T20:33:37.091Z,14.90
2022-10-15T20:36:05.942Z,14.90
2022-10-15T20:38:36.669Z,14.80
2022-10-15T20:41:08.435Z,14.80
2022-10-15T20:43:36.464Z,14.60
2022-10-15T20:46:04.663Z,14.50
2022-10-15T20:48:33.968Z,14.40
2022-10-15T20:51:02.089Z,14.40
2022-10-15T20:53:30.207Z,14.40
2022-10-15T20:55:57.998Z,14.30
2022-10-15T20:58:26.076Z,14.30
2022-10-15T21:00:53.957Z,14.30
2022-10-15T21:03:22.007Z,14.30
2022-10-15T21:05:51.097Z,14.30
2022-10-15T21:08:18.879Z,14.30
2022-10-15T21:10:46.652Z,14.20
2022-10-15T21:13:14.462Z,14.30
2022-10-15T21:15:42.215Z,14.20
2022-10-15T21:18:10.077Z,14.20
2022-10-15T21:20:37.834Z,14.10
2022-10-15T21:23:06.952Z,14.20
2022-10-15T21:25:35.197Z,14.10
2022-10-15T21:28:03.027Z,14.00
2022-10-15T21:30:30.903Z,14.00
2022-10-15T21:32:58.682Z,14.00
2022-10-15T21:35:26.521Z,14.00
2022-10-15T21:37:54.470Z,13.90
2022-10-15T21:40:23.585Z,14.00
2022-10-15T21:42:51.537Z,13.90
2022-10-15T21:45:19.328Z,13.90
2022-10-15T21:47:47.104Z,13.90
2022-10-15T21:50:14.951Z,13.90
2022-10-15T21:52:43.153Z,13.90
2022-10-15T21:55:10.933Z,13.90
2022-10-15T21:57:40.089Z,13.90
2022-10-15T22:00:12.381Z,13.90
2022-10-15T22:02:43.225Z,13.90
2022-10-15T22:05:11.040Z,13.90
2022-10-15T22:07:40.297Z,13.90
2022-10-15T22:10:08.581Z,13.90
2022-10-15T22:12:36.446Z,13.80
2022-10-15T22:15:06.019Z,14.00
2022-10-15T22:17:33.849Z,14.00
2022-10-15T22:20:01.627Z,14.10
2022-10-15T22:22:29.499Z,14.10
2022-10-15T22:24:59.576Z,14.10
2022-10-15T22:27:27.711Z,14.10
2022-10-15T22:29:58.130Z,14.10
2022-10-15T22:32:29.683Z,14.10
2022-10-15T22:34:57.462Z,14.10
2022-10-15T22:37:25.235Z,14.20
2022-10-15T22:39:53.050Z,14.20
2022-10-15T22:42:20.882Z,14.10
2022-10-15T22:44:48.621Z,14.20
2022-10-15T22:47:16.434Z,14.10
2022-10-15T22:49:45.575Z,14.10
2022-10-15T22:52:13.445Z,14.10
2022-10-15T22:54:41.254Z,14.00
2022-10-15T22:57:09.063Z,13.90
2022-10-15T22:59:37.024Z,13.90
2022-10-15T23:02:05.106Z,13.90
2022-10-15T23:04:32.928Z,13.90
2022-10-15T23:07:02.122Z,13.90
2022-10-15T23:09:29.907Z,13.90
2022-10-15T23:11:57.677Z,13.80
2022-10-15T23:14:25.507Z,13.90
2022-10-15T23:16:53.264Z,13.90
2022-10-15T23:19:22.334Z,13.90
2022-10-15T23:21:51.067Z,13.90
2022-10-15T23:24:21.252Z,13.90
2022-10-15T23:26:49.548Z,13.90
2022-10-15T23:29:18.403Z,13.90
2022-10-15T23:31:46.566Z,13.90
2022-10-15T23:34:15.503Z,14.00
2022-10-15T23:36:43.668Z,14.00
2022-10-15T23:39:13.178Z,14.10
2022-10-15T23:41:42.819Z,14.20
2022-10-15T23:44:10.591Z,14.30
2022-10-15T23:46:38.596Z,14.30
2022-10-15T23:49:06.768Z,14.30
2022-10-15T23:51:37.306Z,14.40
2022-10-15T23:54:10.835Z,14.50
2022-10-15T23:56:38.607Z,14.50
2022-10-15T23:59:08.112Z,14.50
